Time;durP1;ratioP1;P1;durP2;ratioP2;P2;SDS_P1;SDS_P2;PMS_P1;PMS_P2;Temp;Humidity;BMP_temperature;BMP_pressure;BME280_temperature;BME280_humidity;BME280_pressure;Samples;Min_cycle;Max_cycle;Signal;HPM_P1;HPM_P2
2021/06/28 00:01:30;;;;;;;5.70;5.20;;;;;;;19.08;67.41;101677.59;3591112;40;20277;-84
2021/06/28 00:03:55;;;;;;;7.27;6.57;;;;;;;19.06;67.42;101679.31;3600945;39;20239;-84
2021/06/28 00:06:20;;;;;;;7.33;6.67;;;;;;;19.04;67.29;101686.25;3591266;40;20230;-84
2021/06/28 00:08:47;;;;;;;7.30;6.60;;;;;;;18.95;67.73;101686.28;3596615;40;20225;-83
2021/06/28 00:11:13;;;;;;;7.40;6.80;;;;;;;18.94;67.10;101684.56;3591641;40;20245;-84
2021/06/28 00:13:40;;;;;;;6.67;6.07;;;;;;;18.88;67.24;101689.75;3583036;40;20217;-82
2021/06/28 00:16:06;;;;;;;7.50;6.83;;;;;;;18.89;67.91;101692.31;3582369;40;20241;-80
2021/06/28 00:18:32;;;;;;;6.13;5.33;;;;;;;18.83;68.16;101687.16;3589486;40;20283;-82
2021/06/28 00:20:58;;;;;;;7.30;6.57;;;;;;;18.79;68.46;101682.81;3580067;40;20687;-79
2021/06/28 00:23:23;;;;;;;8.67;7.70;;;;;;;18.73;68.64;101688.03;3589516;40;20230;-83
2021/06/28 00:25:49;;;;;;;7.20;6.60;;;;;;;18.72;68.73;101682.81;3589327;40;20233;-80
2021/06/28 00:28:14;;;;;;;7.30;6.60;;;;;;;18.80;68.27;101686.28;3586903;40;20229;-79
2021/06/28 00:30:42;;;;;;;7.60;6.80;;;;;;;18.79;68.39;101690.59;3586785;40;20237;-79
2021/06/28 00:33:14;;;;;;;6.87;6.20;;;;;;;18.71;68.51;101697.56;3577566;40;20218;-81
2021/06/28 00:35:40;;;;;;;6.83;6.23;;;;;;;18.62;68.69;101692.38;3577773;40;20354;-81
2021/06/28 00:38:06;;;;;;;7.03;6.43;;;;;;;18.58;68.66;101689.75;3579493;40;20206;-83
2021/06/28 00:40:33;;;;;;;8.13;7.40;;;;;;;18.54;68.34;101694.06;3591039;40;20240;-82
2021/06/28 00:42:58;;;;;;;5.33;4.83;;;;;;;18.50;68.39;101692.34;3591187;40;20236;-84
2021/06/28 00:45:30;;;;;;;6.43;5.57;;;;;;;18.46;68.84;101685.41;3590883;40;20217;-84
2021/06/28 00:48:02;;;;;;;5.43;4.90;;;;;;;18.45;69.17;101691.47;3591346;40;20229;-81
2021/06/28 00:50:30;;;;;;;8.33;7.53;;;;;;;18.42;68.86;101685.44;3622082;22;20244;-79
2021/06/28 00:53:00;;;;;;;8.03;7.23;;;;;;;18.38;68.81;101684.53;3611644;40;20236;-81
2021/06/28 00:55:26;;;;;;;8.33;7.53;;;;;;;18.28;69.48;101685.34;3602920;40;20208;-81
2021/06/28 00:57:51;;;;;;;8.27;7.50;;;;;;;18.29;69.11;101681.06;3603354;40;20231;-80
2021/06/28 01:00:17;;;;;;;5.50;5.00;;;;;;;18.22;69.35;101680.16;3612046;39;20236;-84
2021/06/28 01:02:43;;;;;;;6.40;5.73;;;;;;;18.13;69.55;101687.94;3602874;40;20240;-83
2021/06/28 01:05:15;;;;;;;5.70;5.07;;;;;;;18.09;69.54;101680.13;3600687;40;20729;-84
2021/06/28 01:07:42;;;;;;;6.60;5.97;;;;;;;18.01;69.47;101684.44;3607589;40;20235;-83
2021/06/28 01:10:09;;;;;;;8.17;7.37;;;;;;;17.81;70.42;101692.16;3602226;40;20240;-81
2021/06/28 01:12:34;;;;;;;7.57;6.87;;;;;;;17.81;69.89;101689.56;3595398;40;20221;-86
2021/06/28 01:15:01;;;;;;;7.80;7.00;;;;;;;17.77;69.75;101692.16;3602055;39;20633;-83
2021/06/28 01:17:27;;;;;;;5.73;5.23;;;;;;;17.73;69.64;101688.66;3601871;39;20224;-84
2021/06/28 01:19:57;;;;;;;5.50;5.00;;;;;;;17.70;69.33;101687.78;3606287;40;20228;-81
2021/06/28 01:22:26;;;;;;;5.80;4.87;;;;;;;17.66;69.23;101686.91;3603255;40;20289;-85
2021/06/28 01:24:55;;;;;;;5.10;4.60;;;;;;;17.60;69.51;101686.88;3602598;40;20234;-83
2021/06/28 01:27:21;;;;;;;6.20;5.57;;;;;;;17.54;69.66;101678.25;3611750;39;20208;-84
2021/06/28 01:29:46;;;;;;;5.37;4.87;;;;;;;17.51;69.24;101678.22;3599965;40;20237;-82
2021/06/28 01:32:11;;;;;;;4.63;4.23;;;;;;;17.50;69.13;101674.75;3602117;39;20205;-85
2021/06/28 01:34:37;;;;;;;4.80;4.40;;;;;;;17.47;69.38;101681.63;3595057;40;20354;-82
2021/06/28 01:37:18;;;;;;;7.57;6.17;;;;;;;17.32;70.65;101666.84;3605991;39;20625;-84
2021/06/28 01:39:44;;;;;;;6.43;5.83;;;;;;;17.35;70.62;101678.94;3607681;40;20283;-81
2021/06/28 01:42:09;;;;;;;6.37;5.77;;;;;;;17.34;70.62;101685.88;3604787;39;20220;-82
2021/06/28 01:44:35;;;;;;;5.80;5.20;;;;;;;17.33;70.79;101685.84;3602148;40;20240;-82
2021/06/28 01:47:00;;;;;;;6.20;5.60;;;;;;;17.32;69.96;101692.75;3611582;39;20228;-81
2021/06/28 01:49:25;;;;;;;7.50;6.63;;;;;;;17.33;70.23;101688.44;3600815;40;20338;-84
2021/06/28 01:51:51;;;;;;;8.13;7.33;;;;;;;17.22;71.33;101682.34;3601477;39;20224;-85
2021/06/28 01:54:17;;;;;;;7.30;6.60;;;;;;;17.30;70.29;101680.66;3592778;40;20278;-82
2021/06/28 01:56:43;;;;;;;7.37;6.47;;;;;;;17.23;70.31;101687.50;3592710;40;20216;-83
2021/06/28 01:59:08;;;;;;;6.17;5.57;;;;;;;17.09;70.60;101686.56;3591897;40;20220;-83
2021/06/28 02:01:34;;;;;;;5.83;5.33;;;;;;;17.08;70.33;101691.75;3595873;40;20687;-81
2021/06/28 02:03:59;;;;;;;6.53;5.90;;;;;;;17.05;69.83;101682.25;3600665;40;20229;-82
2021/06/28 02:06:24;;;;;;;6.03;5.43;;;;;;;17.01;69.63;101682.19;3600186;40;20288;-82
2021/06/28 02:08:52;;;;;;;6.93;6.27;;;;;;;17.00;69.69;101675.31;3598337;40;20229;-80
2021/06/28 02:11:17;;;;;;;6.87;6.17;;;;;;;17.02;69.80;101671.88;3609468;39;20687;-84
2021/06/28 02:13:44;;;;;;;8.50;7.33;;;;;;;16.94;71.05;101668.34;3610016;40;20232;-81
2021/06/28 02:16:09;;;;;;;9.80;8.80;;;;;;;17.08;71.05;101671.03;3602121;39;20228;-81
2021/06/28 02:18:35;;;;;;;8.63;7.73;;;;;;;17.09;71.33;101671.03;3604793;40;20222;-79
2021/06/28 02:21:01;;;;;;;8.00;7.20;;;;;;;17.09;71.61;101670.19;3601421;40;20247;-82
2021/06/28 02:23:32;;;;;;;9.67;8.13;;;;;;;17.11;71.62;101663.28;3600853;40;20619;-83
2021/06/28 02:26:05;;;;;;;7.57;6.83;;;;;;;17.13;71.32;101653.81;3590769;40;20216;-82
2021/06/28 02:28:33;;;;;;;10.83;9.77;;;;;;;17.13;72.05;101653.81;3590687;40;20671;-80
2021/06/28 02:30:59;;;;;;;8.90;7.60;;;;;;;17.20;71.77;101652.97;3598368;40;20239;-81
2021/06/28 02:33:26;;;;;;;23.90;9.03;;;;;;;17.23;71.76;101647.81;3599814;40;20216;-81
2021/06/28 02:35:52;;;;;;;8.83;8.03;;;;;;;17.28;71.37;101657.38;3597728;40;20233;-82
2021/06/28 02:38:18;;;;;;;10.20;9.20;;;;;;;17.42;71.39;101652.28;3600657;40;20236;-81
2021/06/28 02:40:43;;;;;;;8.73;7.83;;;;;;;17.40;71.46;101651.41;3604563;40;20256;-82
2021/06/28 02:43:09;;;;;;;7.30;6.33;;;;;;;17.43;70.89;101659.19;3608106;40;20217;-81
2021/06/28 02:45:35;;;;;;;10.67;9.60;;;;;;;17.50;71.39;101656.63;3603152;40;20237;-83
2021/06/28 02:48:00;;;;;;;9.60;8.70;;;;;;;17.55;71.46;101656.66;3608168;39;20286;-82
2021/06/28 02:50:26;;;;;;;9.80;8.80;;;;;;;17.68;70.59;101653.25;3595910;40;20239;-81
2021/06/28 02:52:51;;;;;;;11.97;10.03;;;;;;;17.59;71.35;101655.81;3602786;40;20277;-81
2021/06/28 02:55:16;;;;;;;9.17;8.27;;;;;;;17.65;71.21;101653.22;3606886;40;20232;-81
2021/06/28 02:57:42;;;;;;;10.63;9.23;;;;;;;17.62;71.16;101646.31;3609663;39;20236;-82
2021/06/28 03:00:11;;;;;;;9.53;8.53;;;;;;;17.64;71.03;101652.34;3608309;40;20240;-80
2021/06/28 03:02:36;;;;;;;10.73;9.73;;;;;;;17.61;71.56;101656.66;3608273;40;20212;-81
2021/06/28 03:05:05;;;;;;;8.70;7.80;;;;;;;17.67;71.17;101651.50;3608206;40;20225;-81
2021/06/28 03:07:30;;;;;;;13.00;9.60;;;;;;;17.63;71.12;101655.81;3597630;40;20612;-82
2021/06/28 03:09:55;;;;;;;7.87;7.07;;;;;;;17.68;71.14;101651.50;3602882;40;20237;-82
2021/06/28 03:12:20;;;;;;;9.43;8.53;;;;;;;17.69;71.22;101655.81;3603860;40;20221;-79
2021/06/28 03:14:46;;;;;;;10.77;9.67;;;;;;;17.76;70.55;101656.72;3597647;40;20244;-83
2021/06/28 03:17:11;;;;;;;9.13;8.23;;;;;;;17.76;70.92;101659.31;3591682;40;20240;-82
2021/06/28 03:19:36;;;;;;;10.53;9.33;;;;;;;17.80;71.00;101663.63;3599840;40;20253;-83
2021/06/28 03:22:02;;;;;;;10.53;9.43;;;;;;;17.83;70.67;101659.31;3591407;40;20237;-82
2021/06/28 03:24:27;;;;;;;8.47;7.67;;;;;;;17.95;70.40;101661.09;3601854;40;20289;-81
2021/06/28 03:26:52;;;;;;;8.27;7.50;;;;;;;18.00;70.74;101659.41;3596753;40;20235;-82
2021/06/28 03:29:17;;;;;;;11.30;10.10;;;;;;;18.01;70.44;101664.56;3601253;40;20312;-81
2021/06/28 03:31:43;;;;;;;10.80;9.07;;;;;;;18.06;70.12;101662.84;3610247;40;20224;-81
2021/06/28 03:34:08;;;;;;;9.20;8.30;;;;;;;18.16;69.99;101666.34;3610930;40;20235;-81
2021/06/28 03:36:33;;;;;;;11.77;9.80;;;;;;;18.24;69.85;101670.66;3610319;40;20224;-80
2021/06/28 03:38:58;;;;;;;9.87;8.30;;;;;;;18.21;69.67;101667.19;3608765;40;20662;-83
2021/06/28 03:41:24;;;;;;;12.53;10.03;;;;;;;18.32;69.43;101668.94;3610139;40;20247;-82
2021/06/28 03:43:49;;;;;;;11.83;10.47;;;;;;;18.27;70.05;101667.19;3603653;40;20213;-81
2021/06/28 03:46:14;;;;;;;9.20;8.27;;;;;;;18.34;69.48;101666.38;3600171;40;20217;-82
2021/06/28 03:48:40;;;;;;;10.97;9.17;;;;;;;18.44;70.05;101675.91;3599519;40;20236;-82
2021/06/28 03:51:05;;;;;;;9.27;8.20;;;;;;;18.51;69.24;101670.72;3592772;40;20279;-82
2021/06/28 03:53:31;;;;;;;10.73;9.47;;;;;;;18.58;68.75;101664.69;3599888;40;20241;-82
2021/06/28 03:55:57;;;;;;;9.17;8.27;;;;;;;18.59;68.69;101669.00;3598076;40;20236;-82
2021/06/28 03:58:22;;;;;;;11.63;8.77;;;;;;;18.61;68.67;101664.66;3600300;40;20212;-80
2021/06/28 04:00:47;;;;;;;13.30;10.73;;;;;;;18.63;69.44;101667.25;3599868;40;20306;-81
2021/06/28 04:03:14;;;;;;;10.90;8.37;;;;;;;18.73;69.00;101674.16;3595444;40;20223;-81
2021/06/28 04:05:41;;;;;;;6.63;6.03;;;;;;;18.78;68.96;101669.84;3604421;40;20223;-79
2021/06/28 04:08:06;;;;;;;10.67;7.97;;;;;;;18.81;68.60;101665.53;3594531;40;20224;-79
2021/06/28 04:10:31;;;;;;;10.83;9.50;;;;;;;18.83;69.85;101662.94;3594818;40;20656;-79
2021/06/28 04:12:57;;;;;;;10.90;8.97;;;;;;;18.83;69.33;101671.56;3604133;40;20258;-79
2021/06/28 04:15:23;;;;;;;9.83;8.50;;;;;;;18.94;69.00;101658.59;3604377;40;20233;-80
2021/06/28 04:17:52;;;;;;;11.33;10.07;;;;;;;19.04;69.20;101660.28;3594825;40;20212;-79
2021/06/28 04:20:20;;;;;;;11.97;10.77;;;;;;;19.16;68.67;101660.28;3604314;40;20252;-79
2021/06/28 04:22:46;;;;;;;11.27;9.20;;;;;;;19.28;67.60;101655.94;3604209;40;20324;-78
2021/06/28 04:25:15;;;;;;;10.40;9.23;;;;;;;19.43;67.02;101653.28;3599280;40;20243;-79
2021/06/28 04:27:41;;;;;;;9.90;8.87;;;;;;;19.59;66.75;101648.91;3594623;40;20226;-82
2021/06/28 04:30:08;;;;;;;11.63;10.43;;;;;;;19.65;66.38;101654.94;3592677;40;20255;-79
2021/06/28 04:32:35;;;;;;;9.57;8.57;;;;;;;19.81;65.37;101655.72;3604897;40;20240;-79
2021/06/28 04:35:02;;;;;;;11.10;9.93;;;;;;;20.01;65.10;101656.47;3591821;40;20225;-79
2021/06/28 04:37:27;;;;;;;9.33;8.43;;;;;;;20.12;65.37;101649.50;3599151;40;20232;-80
2021/06/28 04:39:53;;;;;;;10.80;9.70;;;;;;;20.17;64.27;101642.53;3595113;40;20252;-82
2021/06/28 04:42:18;;;;;;;11.07;9.90;;;;;;;20.13;63.61;101641.69;3595356;40;20268;-79
2021/06/28 04:44:43;;;;;;;8.00;7.30;;;;;;;20.16;64.20;101631.25;3596417;40;20243;-79
2021/06/28 04:47:08;;;;;;;10.53;9.17;;;;;;;20.23;64.07;101635.53;3596901;40;20295;-79
2021/06/28 04:49:34;;;;;;;9.67;8.13;;;;;;;20.37;63.90;101635.44;3586777;40;20826;-80
2021/06/28 04:51:59;;;;;;;10.93;9.93;;;;;;;20.43;63.33;101635.38;3594617;40;20225;-78
2021/06/28 04:54:27;;;;;;;11.23;9.57;;;;;;;20.49;63.22;101623.19;3585990;40;20204;-81
2021/06/28 04:56:52;;;;;;;9.83;8.50;;;;;;;20.66;62.85;101625.66;3598945;40;20254;-80
2021/06/28 04:59:18;;;;;;;9.98;8.98;;;;;;;20.69;63.15;101630.84;3596076;40;20229;-79
2021/06/28 05:01:44;;;;;;;9.63;8.73;;;;;;;20.65;63.04;101630.00;3603197;40;20267;-79
2021/06/28 05:04:09;;;;;;;7.87;6.97;;;;;;;20.79;62.25;101625.53;3593898;40;20224;-80
2021/06/28 05:06:35;;;;;;;10.90;9.80;;;;;;;20.81;61.99;101625.50;3595256;40;20241;-80
2021/06/28 05:09:00;;;;;;;11.77;10.00;;;;;;;20.92;62.11;101626.31;3585808;40;20228;-79
2021/06/28 05:11:25;;;;;;;9.47;8.47;;;;;;;21.06;61.52;101621.81;3595023;40;20239;-79
2021/06/28 05:13:51;;;;;;;10.90;9.83;;;;;;;21.07;61.54;101631.34;3585451;40;20228;-80
2021/06/28 05:16:16;;;;;;;10.93;9.80;;;;;;;21.09;61.05;101629.59;3594793;40;20232;-80
2021/06/28 05:18:41;;;;;;;11.77;9.97;;;;;;;20.99;61.01;101628.81;3591883;40;20233;-80
2021/06/28 05:21:07;;;;;;;9.83;8.90;;;;;;;21.12;60.73;101626.94;3595015;40;20528;-80
2021/06/28 05:23:32;;;;;;;11.23;9.10;;;;;;;21.25;60.89;101625.94;3604858;40;20602;-81
2021/06/28 05:25:58;;;;;;;9.73;8.83;;;;;;;21.25;60.96;101629.41;3604712;40;20294;-79
2021/06/28 05:28:23;;;;;;;7.57;6.87;;;;;;;21.34;60.92;101631.91;3603202;40;20274;-78
2021/06/28 05:30:49;;;;;;;9.83;8.73;;;;;;;21.43;60.47;101623.94;3601628;40;20249;-80
2021/06/28 05:33:14;;;;;;;12.57;9.70;;;;;;;21.40;60.45;101634.44;3599758;40;20233;-79
2021/06/28 05:35:39;;;;;;;13.30;9.73;;;;;;;21.47;60.29;101628.25;3593536;40;20243;-79
2021/06/28 05:38:04;;;;;;;10.23;8.10;;;;;;;21.65;59.84;101629.78;3592350;40;20235;-82
2021/06/28 05:40:30;;;;;;;11.47;10.37;;;;;;;21.69;59.54;101621.91;3603180;40;20237;-79
2021/06/28 05:42:55;;;;;;;8.43;7.63;;;;;;;21.79;59.44;101627.88;3603122;40;20290;-80
2021/06/28 05:45:20;;;;;;;10.97;8.37;;;;;;;21.79;59.11;101625.28;3602004;40;20228;-79
2021/06/28 05:47:46;;;;;;;11.57;10.47;;;;;;;21.71;59.65;101629.72;3593294;40;20298;-81
2021/06/28 05:50:14;;;;;;;12.00;9.53;;;;;;;21.82;59.67;101630.41;3601463;40;20505;-80
2021/06/28 05:52:40;;;;;;;9.70;8.80;;;;;;;22.04;59.22;101622.28;3597467;40;20597;-80
2021/06/28 05:55:06;;;;;;;10.80;9.60;;;;;;;22.20;58.54;101633.34;3602961;40;20244;-79
2021/06/28 05:57:31;;;;;;;8.83;8.03;;;;;;;22.43;56.96;101626.03;3602607;40;20591;-82
2021/06/28 05:59:57;;;;;;;10.73;7.90;;;;;;;22.55;56.91;101627.59;3593172;40;20239;-79
2021/06/28 06:02:23;;;;;;;15.37;9.20;;;;;;;22.61;56.94;101627.50;3589296;40;20270;-83
2021/06/28 06:04:48;;;;;;;8.73;7.80;;;;;;;22.66;56.47;101634.38;3585934;40;20223;-78
2021/06/28 06:07:13;;;;;;;8.80;7.97;;;;;;;22.61;56.15;101632.72;3589537;40;20232;-79
2021/06/28 06:09:39;;;;;;;7.23;6.63;;;;;;;22.52;56.36;101638.97;3597869;40;20623;-81
2021/06/28 06:12:05;;;;;;;8.83;7.97;;;;;;;22.47;56.65;101635.53;3601909;40;20220;-79
2021/06/28 06:14:30;;;;;;;8.90;8.10;;;;;;;22.37;57.47;101638.31;3601375;40;20263;-80
2021/06/28 06:16:56;;;;;;;8.23;7.50;;;;;;;22.21;57.98;101638.53;3593370;40;20216;-80
2021/06/28 06:19:21;;;;;;;7.07;6.47;;;;;;;22.29;57.72;101628.84;3594602;40;20247;-80
2021/06/28 06:21:46;;;;;;;8.37;7.67;;;;;;;22.29;57.89;101641.88;3588848;40;20289;-79
2021/06/28 06:24:12;;;;;;;10.00;8.87;;;;;;;22.38;57.51;101633.03;3598382;40;20228;-79
2021/06/28 06:26:39;;;;;;;7.47;6.77;;;;;;;22.80;56.65;101637.59;3591261;40;20802;-82
2021/06/28 06:29:04;;;;;;;7.78;6.97;;;;;;;23.27;55.46;101634.97;3599099;40;20263;-84
2021/06/28 06:31:30;;;;;;;7.20;6.53;;;;;;;23.54;55.20;101641.41;3588835;40;20313;-80
2021/06/28 06:33:55;;;;;;;7.63;7.00;;;;;;;23.96;53.21;101637.88;3598472;40;20245;-83
2021/06/28 06:36:20;;;;;;;9.65;8.60;;;;;;;23.94;53.03;101630.06;3594748;40;20228;-82
2021/06/28 06:38:46;;;;;;;10.30;8.20;;;;;;;24.12;51.79;101628.78;3589459;40;20216;-81
2021/06/28 06:41:11;;;;;;;9.68;8.65;;;;;;;24.38;51.16;101627.25;3595014;40;20246;-81
2021/06/28 06:43:37;;;;;;;9.48;7.72;;;;;;;24.75;49.99;101624.59;3603155;40;20617;-82
2021/06/28 06:46:02;;;;;;;7.70;6.60;;;;;;;25.20;49.64;101632.09;3604207;40;20220;-81
2021/06/28 06:48:28;;;;;;;8.10;7.30;;;;;;;25.62;48.86;101635.25;3592871;40;20228;-81
2021/06/28 06:50:53;;;;;;;8.02;5.78;;;;;;;25.68;46.55;101625.44;3595593;40;20301;-81
2021/06/28 06:53:19;;;;;;;6.90;6.30;;;;;;;25.95;47.20;101624.63;3589188;40;20618;-80
2021/06/28 06:55:45;;;;;;;7.38;6.70;;;;;;;25.91;47.59;101627.34;3602324;40;20235;-86
2021/06/28 06:58:10;;;;;;;7.90;7.10;;;;;;;25.67;47.19;101625.50;3605713;40;20205;-84
2021/06/28 07:00:39;;;;;;;6.63;5.97;;;;;;;25.99;45.94;101620.16;3594483;40;20289;-84
2021/06/28 07:03:04;;;;;;;7.65;6.82;;;;;;;25.91;47.44;101617.72;3597129;40;20212;-83
2021/06/28 07:05:32;;;;;;;7.47;6.70;;;;;;;26.40;46.97;101619.66;3595046;40;20220;-86
2021/06/28 07:07:58;;;;;;;8.45;6.88;;;;;;;26.51;46.50;101617.53;3593538;39;20205;-86
2021/06/28 07:10:24;;;;;;;6.75;6.15;;;;;;;26.79;46.24;101619.22;3594521;39;20259;-82
2021/06/28 07:12:50;;;;;;;6.80;6.20;;;;;;;26.72;45.27;101625.63;3593459;40;20472;-82
2021/06/28 07:15:17;;;;;;;7.05;6.35;;;;;;;26.86;45.21;101623.34;3590147;40;20241;-85
2021/06/28 07:17:43;;;;;;;7.85;7.03;;;;;;;27.14;45.23;101623.22;3600281;40;20231;-81
2021/06/28 07:20:14;;;;;;;7.38;5.93;;;;;;;27.38;44.50;101628.47;3589068;40;20237;-83
2021/06/28 07:22:39;;;;;;;6.82;6.13;;;;;;;27.53;43.92;101624.44;3588830;40;20221;-88
2021/06/28 07:25:06;;;;;;;5.90;5.40;;;;;;;27.85;41.70;101624.06;3591775;40;20237;-84
2021/06/28 07:27:32;;;;;;;6.32;5.82;;;;;;;27.77;41.92;101636.66;3596206;40;20290;-85
2021/06/28 07:29:58;;;;;;;7.72;6.60;;;;;;;27.65;42.99;101635.34;3590947;40;20245;-83
2021/06/28 07:32:23;;;;;;;7.65;6.45;;;;;;;27.11;43.18;101637.34;3599231;40;20640;-83
2021/06/28 07:34:48;;;;;;;7.22;6.53;;;;;;;27.27;43.66;101633.25;3610262;40;20547;-82
2021/06/28 07:37:14;;;;;;;7.55;6.88;;;;;;;26.99;44.48;101635.13;3600461;40;20229;-83
2021/06/28 07:39:41;;;;;;;7.82;6.50;;;;;;;26.82;44.56;101637.53;3590952;40;20233;-85
2021/06/28 07:42:07;;;;;;;6.80;6.20;;;;;;;26.73;45.59;101636.97;3608933;40;20223;-84
2021/06/28 07:44:32;;;;;;;8.48;6.20;;;;;;;26.95;45.19;101640.56;3598180;40;20248;-83
2021/06/28 07:46:57;;;;;;;7.55;6.25;;;;;;;26.88;45.04;101628.53;3601013;40;20213;-83
2021/06/28 07:49:23;;;;;;;7.47;6.78;;;;;;;27.04;43.19;101635.88;3601166;40;20267;-82
2021/06/28 07:51:49;;;;;;;7.13;6.47;;;;;;;26.94;44.95;101639.72;3602211;40;20231;-83
2021/06/28 07:54:16;;;;;;;7.55;6.82;;;;;;;26.93;45.50;101639.78;3606371;40;20249;-84
2021/06/28 07:56:41;;;;;;;8.10;7.10;;;;;;;26.68;44.74;101637.13;3591769;40;20229;-85
2021/06/28 07:59:07;;;;;;;7.20;6.60;;;;;;;26.57;46.35;101639.25;3598546;40;20287;-82
2021/06/28 08:01:32;;;;;;;7.35;6.65;;;;;;;27.00;45.79;101633.38;3596420;40;20278;-83
2021/06/28 08:03:57;;;;;;;7.20;6.53;;;;;;;26.93;45.76;101629.25;3600137;40;20603;-84
2021/06/28 08:06:23;;;;;;;6.97;6.32;;;;;;;27.30;45.67;101619.16;3604999;40;20295;-84
2021/06/28 08:08:50;;;;;;;7.05;6.32;;;;;;;27.75;44.14;101617.41;3602870;40;20220;-85
2021/06/28 08:11:16;;;;;;;7.95;7.15;;;;;;;27.50;43.55;101620.09;3600931;39;20329;-83
2021/06/28 08:13:45;;;;;;;7.28;6.68;;;;;;;27.98;44.29;101607.72;3609529;39;20223;-83
2021/06/28 08:16:11;;;;;;;7.68;6.88;;;;;;;28.26;42.61;101610.09;3603720;40;20576;-86
2021/06/28 08:18:36;;;;;;;6.53;5.93;;;;;;;28.53;42.75;101607.19;3603501;40;20219;-84
2021/06/28 08:21:03;;;;;;;7.97;6.32;;;;;;;28.87;42.48;101607.47;3611421;39;20255;-83
2021/06/28 08:23:29;;;;;;;7.22;6.47;;;;;;;29.04;40.71;101604.09;3602342;40;20240;-85
2021/06/28 08:25:54;;;;;;;6.75;6.15;;;;;;;29.57;40.70;101600.75;3600779;40;20208;-86
2021/06/28 08:28:19;;;;;;;7.38;6.65;;;;;;;29.48;38.38;101593.22;3593819;40;20221;-84
2021/06/28 08:30:45;;;;;;;7.20;6.50;;;;;;;29.91;38.52;101586.81;3610583;40;20228;-83
2021/06/28 08:33:10;;;;;;;5.93;5.43;;;;;;;30.43;38.61;101583.31;3602397;40;20282;-87
2021/06/28 08:35:36;;;;;;;7.40;6.30;;;;;;;30.11;37.61;101584.91;3608194;40;20543;-85
2021/06/28 08:38:03;;;;;;;6.10;5.60;;;;;;;30.68;36.89;101585.59;3601530;40;20239;-83
2021/06/28 08:40:28;;;;;;;6.65;6.07;;;;;;;30.57;37.93;101578.19;3591411;40;20225;-85
2021/06/28 08:42:54;;;;;;;6.15;5.60;;;;;;;30.81;37.67;101587.56;3600829;40;20220;-82
2021/06/28 08:45:21;;;;;;;6.25;5.68;;;;;;;31.14;34.96;101583.13;3591692;40;20231;-84
2021/06/28 08:47:47;;;;;;;6.20;5.70;;;;;;;30.86;37.30;101582.88;3601096;40;20232;-83
2021/06/28 08:50:13;;;;;;;6.13;5.63;;;;;;;30.97;36.18;101585.78;3600818;40;20584;-85
2021/06/28 08:52:40;;;;;;;6.43;5.82;;;;;;;31.03;36.46;101571.38;3592311;40;20241;-85
2021/06/28 08:55:07;;;;;;;5.88;5.40;;;;;;;31.10;36.92;101572.75;3592127;40;20298;-84
2021/06/28 08:57:32;;;;;;;6.03;5.43;;;;;;;31.42;36.82;101575.41;3592446;40;20217;-83
2021/06/28 08:59:58;;;;;;;5.65;5.13;;;;;;;31.78;36.00;101567.22;3591462;40;20614;-86
2021/06/28 09:02:23;;;;;;;5.47;4.97;;;;;;;32.16;34.11;101572.03;3592421;39;20241;-86
2021/06/28 09:05:05;;;;;;;7.70;5.28;;;;;;;31.96;33.20;101571.47;3611832;39;20208;-86
2021/06/28 09:07:31;;;;;;;6.45;5.85;;;;;;;31.80;34.52;101568.84;3607164;39;20217;-88
2021/06/28 09:09:56;;;;;;;6.28;5.70;;;;;;;31.37;35.38;101573.94;3600487;39;20252;-86
2021/06/28 09:12:22;;;;;;;5.57;5.18;;;;;;;31.65;34.05;101564.38;3594397;39;20284;-85
2021/06/28 09:14:59;;;;;;;5.72;5.10;;;;;;;31.77;35.48;101563.72;3594474;40;20988;-85
2021/06/28 09:17:30;;;;;;;5.47;4.97;;;;;;;32.09;36.04;101560.06;3602092;40;20309;-86
2021/06/28 09:20:22;;;;;;;5.68;5.15;;;;;;;32.01;34.93;101561.47;3593217;39;20690;-86
2021/06/28 09:22:50;;;;;;;5.40;4.90;;;;;;;31.75;34.52;101556.78;3596887;40;20499;-87
2021/06/28 09:25:48;;;;;;;5.78;5.28;;;;;;;32.10;34.49;101555.63;3597736;40;20278;-85
2021/06/28 09:28:14;;;;;;;6.38;5.30;;;;;;;32.23;34.19;101548.66;3580340;40;20244;-84
2021/06/28 09:30:51;;;;;;;7.13;5.50;;;;;;;31.72;34.79;101556.94;3592593;39;20247;-83
2021/06/28 09:33:20;;;;;;;5.05;4.65;;;;;;;31.58;34.12;101555.06;3600269;40;20249;-84
2021/06/28 09:35:45;;;;;;;5.32;4.82;;;;;;;31.81;34.44;101556.47;3584694;40;20243;-78
2021/06/28 09:38:36;;;;;;;5.60;5.20;;;;;;;32.10;34.25;101559.16;3591973;40;20481;-78
2021/06/28 09:41:22;;;;;;;5.72;5.22;;;;;;;31.78;33.61;101564.56;3597388;40;20249;-82
2021/06/28 09:43:48;;;;;;;5.65;5.13;;;;;;;31.52;34.11;101559.84;3596948;40;20696;-77
2021/06/28 09:46:18;;;;;;;5.97;5.38;;;;;;;31.55;34.23;101560.56;3594877;40;20227;-78
2021/06/28 09:48:52;;;;;;;5.07;4.68;;;;;;;31.76;35.01;101563.81;3589169;40;20221;-82
2021/06/28 09:51:20;;;;;;;5.53;5.13;;;;;;;31.83;34.75;101563.38;3590916;40;20255;-77
2021/06/28 09:53:50;;;;;;;5.00;4.50;;;;;;;32.16;34.43;101552.59;3596390;40;20622;-78
2021/06/28 09:56:35;;;;;;;4.78;4.45;;;;;;;32.23;33.66;101554.81;3582823;40;20236;-78
2021/06/28 09:59:22;;;;;;;5.40;4.90;;;;;;;32.04;34.10;101556.00;3594639;40;20239;-78
2021/06/28 10:01:49;;;;;;;5.65;5.07;;;;;;;32.37;33.55;101554.88;3597827;40;20230;-79
2021/06/28 10:04:37;;;;;;;6.50;5.72;;;;;;;32.93;33.58;101555.00;3588928;40;20286;-78
2021/06/28 10:07:26;;;;;;;4.72;4.40;;;;;;;33.95;31.10;101555.50;3592689;40;20331;-78
2021/06/28 10:10:18;;;;;;;6.28;5.07;;;;;;;34.88;29.64;101557.09;3595011;40;20241;-81
2021/06/28 10:13:08;;;;;;;5.97;5.40;;;;;;;34.74;29.26;101547.38;3584758;40;20860;-79
2021/06/28 10:15:42;;;;;;;4.72;4.43;;;;;;;34.35;30.34;101554.59;3583755;40;20240;-78
2021/06/28 10:18:09;;;;;;;4.90;4.50;;;;;;;33.71;30.52;101554.44;3593440;40;20573;-78
2021/06/28 10:20:39;;;;;;;4.43;4.10;;;;;;;34.20;29.24;101550.28;3592274;40;20249;-80
2021/06/28 10:23:05;;;;;;;4.95;4.20;;;;;;;34.55;28.49;101544.28;3595680;40;20236;-80
2021/06/28 10:25:31;;;;;;;4.60;4.20;;;;;;;34.93;29.07;101545.16;3601921;40;20226;-81
2021/06/28 10:27:59;;;;;;;4.80;4.40;;;;;;;34.97;28.62;101538.66;3592424;40;20508;-80
2021/06/28 10:30:26;;;;;;;4.82;4.43;;;;;;;35.11;28.39;101540.31;3595715;40;20496;-79
2021/06/28 10:32:59;;;;;;;4.82;4.43;;;;;;;35.25;27.87;101542.84;3593139;40;20237;-80
2021/06/28 10:35:29;;;;;;;4.90;4.40;;;;;;;35.35;27.97;101530.59;3592447;40;20232;-79
2021/06/28 10:37:59;;;;;;;4.82;4.40;;;;;;;35.48;27.25;101537.59;3592612;40;20257;-79
2021/06/28 10:40:25;;;;;;;4.43;4.07;;;;;;;36.07;27.43;101533.19;3592082;40;20252;-79
2021/06/28 10:42:55;;;;;;;4.15;3.70;;;;;;;36.48;26.32;101534.44;3582941;40;20310;-80
2021/06/28 10:45:42;;;;;;;4.13;3.83;;;;;;;36.91;26.02;101530.13;3591930;40;20236;-79
2021/06/28 10:48:07;;;;;;;4.45;4.15;;;;;;;36.83;26.98;101535.22;3582623;40;20248;-80
2021/06/28 10:50:57;;;;;;;5.65;4.50;;;;;;;37.37;26.79;101529.13;3597167;40;20235;-80
2021/06/28 10:53:28;;;;;;;4.47;4.07;;;;;;;37.97;25.79;101532.13;3601895;40;20236;-81
2021/06/28 10:55:54;;;;;;;4.22;3.83;;;;;;;37.94;23.55;101522.53;3601318;40;20227;-80
2021/06/28 10:58:29;;;;;;;3.60;3.38;;;;;;;38.54;22.23;101521.88;3592526;40;20511;-80
2021/06/28 11:01:08;;;;;;;3.80;3.50;;;;;;;39.07;22.09;101515.34;3601628;40;20780;-79
2021/06/28 11:03:34;;;;;;;3.65;3.35;;;;;;;39.93;21.56;101513.72;3601713;40;20216;-79
2021/06/28 11:06:22;;;;;;;3.50;3.30;;;;;;;40.41;21.35;101503.78;3596495;40;20598;-81
2021/06/28 11:08:58;;;;;;;3.67;3.38;;;;;;;40.66;20.29;101497.78;3598816;40;20236;-80
2021/06/28 11:11:42;;;;;;;3.90;3.55;;;;;;;41.41;20.95;101507.34;3601237;40;20613;-80
2021/06/28 11:14:08;;;;;;;3.70;3.40;;;;;;;40.13;20.03;101510.00;3600918;40;20230;-80
2021/06/28 11:16:33;;;;;;;4.38;3.97;;;;;;;39.27;21.66;101514.44;3591925;40;20228;-79
2021/06/28 11:19:00;;;;;;;3.92;3.50;;;;;;;38.59;22.89;101504.44;3601117;40;20231;-80
2021/06/28 11:21:40;;;;;;;4.13;3.83;;;;;;;39.17;22.27;101510.88;3600156;40;20291;-79
2021/06/28 11:24:06;;;;;;;4.07;3.78;;;;;;;38.79;22.80;101508.03;3600502;40;20228;-79
2021/06/28 11:26:35;;;;;;;3.67;3.38;;;;;;;37.80;23.14;101504.09;3594448;40;20494;-80